Time,TemperatureF,DewpointF,PressureIn,WindDirection,WindDirectionDegrees,WindSpeedMPH,WindSpeedGustMPH,Humidity,HourlyPrecipIn,Conditions,Clouds,dailyrainin,SoftwareType,DateUTC
2013-09-14 00:01:00,53.1,49.0,29.48,NNW,333,1.3,2.3,86,0.00,RA,SCT,0.00,WeatherDisplay:10.37,2013-09-14 04:01:00,
2013-09-14 00:06:00,52.9,48.8,29.48,NNW,346,2.5,3.5,86,0.00,RA,SCT,0.00,WeatherDisplay:10.37,2013-09-14 04:06:00,
2013-09-14 00:11:00,52.7,48.6,29.48,NNW,340,1.2,3.5,86,0.00,CLR,SCT,0.00,WeatherDisplay:10.37,2013-09-14 04:11:00,
2013-09-14 00:16:00,52.6,48.5,29.48,North,355,1.8,4.6,86,0.00,CLR,SCT,0.00,WeatherDisplay:10.37,2013-09-14 04:16:00,
2013-09-14 00:21:00,52.5,48.4,29.48,NNE,28,3.3,5.0,86,0.00,CLR,SCT,0.00,WeatherDisplay:10.37,2013-09-14 04:21:00,
2013-09-14 00:26:00,52.4,48.0,29.48,NNW,341,2.6,3.5,85,0.00,CLR,SCT,0.00,WeatherDisplay:10.37,2013-09-14 04:26:00,
2013-09-14 00:31:00,52.4,48.3,29.48,North,350,2.3,3.5,86,0.00,CLR,SCT,0.00,WeatherDisplay:10.37,2013-09-14 04:31:00,
2013-09-14 00:36:00,52.3,48.2,29.48,NNW,348,2.6,4.6,86,0.00,CLR,SCT,0.00,WeatherDisplay:10.37,2013-09-14 04:36:00,
2013-09-14 00:41:00,52.1,48.0,29.48,WNW,302,3.0,7.0,86,0.00,CLR,SCT,0.00,WeatherDisplay:10.37,2013-09-14 04:41:00,
2013-09-14 00:46:00,52.1,48.0,29.48,North,5,2.2,5.8,86,0.00,CLR,SCT,0.00,WeatherDisplay:10.37,2013-09-14 04:46:00,
2013-09-14 00:51:00,52.0,47.9,29.49,NNE,24,1.8,4.6,86,0.00,CLR,SCT,0.00,WeatherDisplay:10.37,2013-09-14 04:51:00,
2013-09-14 00:56:00,51.9,47.5,29.49,NNW,332,2.7,5.8,85,0.00,CLR,SCT,0.00,WeatherDisplay:10.37,2013-09-14 04:56:00,
2013-09-14 01:01:00,51.9,47.5,29.49,North,355,0.9,2.3,85,0.00,CLR,SCT,0.00,WeatherDisplay:10.37,2013-09-14 05:01:00,
2013-09-14 01:06:00,51.9,47.8,29.49,NNW,340,2.0,5.8,86,0.00,CLR,SCT,0.00,WeatherDisplay:10.37,2013-09-14 05:06:00,
2013-09-14 01:11:00,51.9,48.2,29.49,NW,315,0.9,3.5,87,0.00,CLR,SCT,0.00,WeatherDisplay:10.37,2013-09-14 05:11:00,
2013-09-14 01:16:00,51.7,48.0,29.49,NW,319,2.6,4.0,87,0.00,CLR,SCT,0.00,WeatherDisplay:10.37,2013-09-14 05:16:00,
2013-09-14 01:21:00,51.6,47.5,29.49,NNW,331,2.4,3.0,86,0.00,CLR,SCT,0.00,WeatherDisplay:10.37,2013-09-14 05:21:00,
2013-09-14 01:26:00,51.6,47.9,29.49,NW,314,1.0,2.3,87,0.00,CLR,SCT,0.00,WeatherDisplay:10.37,2013-09-14 05:26:00,
2013-09-14 01:31:00,51.6,47.5,29.49,NNW,336,1.5,4.6,86,0.00,CLR,SCT,0.00,WeatherDisplay:10.37,2013-09-14 05:31:00,
2013-09-14 01:36:00,51.5,47.8,29.49,NNE,21,1.6,6.0,87,0.00,CLR,SCT,0.00,WeatherDisplay:10.37,2013-09-14 05:36:00,
2013-09-14 01:41:00,51.5,47.8,29.50,NNW,331,0.3,2.3,87,0.00,CLR,SCT,0.00,WeatherDisplay:10.37,2013-09-14 05:41:00,
2013-09-14 01:46:00,51.4,47.7,29.50,NW,325,0.4,2.3,87,0.00,CLR,SCT,0.00,WeatherDisplay:10.37,2013-09-14 05:46:00,
2013-09-14 01:51:00,51.3,47.6,29.50,NW,324,1.6,2.3,87,0.00,CLR,SCT,0.00,WeatherDisplay:10.37,2013-09-14 05:51:00,
2013-09-14 01:56:00,51.2,47.2,29.50,NNW,333,2.3,4.0,86,0.00,CLR,SCT,0.00,WeatherDisplay:10.37,2013-09-14 05:56:00,
2013-09-14 02:01:00,51.1,47.1,29.50,WNW,300,3.9,4.6,86,0.00,CLR,SCT,0.00,WeatherDisplay:10.37,2013-09-14 06:01:00,
2013-09-14 02:06:00,51.1,47.4,29.50,NW,310,2.1,2.3,87,0.00,CLR,SCT,0.00,WeatherDisplay:10.37,2013-09-14 06:06:00,
2013-09-14 02:11:00,51.0,47.0,29.49,WNW,283,2.4,4.0,86,0.00,CLR,SCT,0.00,WeatherDisplay:10.37,2013-09-14 06:11:00,
2013-09-14 02:16:00,51.0,47.0,29.50,West,261,0.6,3.5,86,0.00,CLR,SCT,0.00,WeatherDisplay:10.37,2013-09-14 06:16:00,
2013-09-14 02:21:00,50.9,47.2,29.50,North,9,1.6,4.6,87,0.00,CLR,SCT,0.00,WeatherDisplay:10.37,2013-09-14 06:21:00,
2013-09-14 02:26:00,50.8,47.1,29.50,NNW,327,0.9,2.0,87,0.00,CLR,SCT,0.00,WeatherDisplay:10.37,2013-09-14 06:26:00,
2013-09-14 02:31:00,50.6,46.6,29.50,SSW,198,1.4,2.3,86,0.00,CLR,SCT,0.00,WeatherDisplay:10.37,2013-09-14 06:31:00,
2013-09-14 02:36:00,50.5,46.2,29.50,North,11,1.0,2.3,85,0.00,CLR,SCT,0.00,WeatherDisplay:10.37,2013-09-14 06:36:00,
2013-09-14 02:41:00,50.4,46.4,29.50,NW,316,1.5,4.0,86,0.00,CLR,SCT,0.00,WeatherDisplay:10.37,2013-09-14 06:41:00,
2013-09-14 02:46:00,50.3,46.3,29.50,NNW,327,1.7,3.5,86,0.00,CLR,SCT,0.00,WeatherDisplay:10.37,2013-09-14 06:46:00,
2013-09-14 02:51:00,50.2,46.5,29.51,NNW,329,1.0,2.3,87,0.00,CLR,SCT,0.00,WeatherDisplay:10.37,2013-09-14 06:51:00,
2013-09-14 02:56:00,50.1,46.4,29.51,NW,321,3.1,3.5,87,0.00,CLR,SCT,0.00,WeatherDisplay:10.37,2013-09-14 06:56:00,
2013-09-14 03:01:00,50.0,46.3,29.51,North,355,1.0,1.1,87,0.00,CLR,SCT,0.00,WeatherDisplay:10.37,2013-09-14 07:01:00,
2013-09-14 03:06:00,50.0,46.6,29.51,NNE,28,0.9,3.0,88,0.00,CLR,SCT,0.00,WeatherDisplay:10.37,2013-09-14 07:06:00,
2013-09-14 03:11:00,49.9,46.2,29.51,NW,317,0.4,2.3,87,0.00,CLR,SCT,0.00,WeatherDisplay:10.37,2013-09-14 07:11:00,
2013-09-14 03:16:00,49.9,46.5,29.51,WNW,290,0.8,2.3,88,0.00,CLR,SCT,0.00,WeatherDisplay:10.37,2013-09-14 07:16:00,
2013-09-14 03:21:00,49.7,46.3,29.51,WNW,290,0.7,1.1,88,0.00,CLR,SCT,0.00,WeatherDisplay:10.37,2013-09-14 07:21:00,
2013-09-14 03:26:00,49.5,46.1,29.51,NW,313,1.7,3.5,88,0.00,CLR,SCT,0.00,WeatherDisplay:10.37,2013-09-14 07:26:00,
2013-09-14 03:31:00,49.5,46.4,29.51,NNW,340,1.1,2.3,89,0.00,CLR,SCT,0.00,WeatherDisplay:10.37,2013-09-14 07:31:00,
2013-09-14 03:36:00,49.5,46.4,29.51,NNW,327,1.4,2.3,89,0.00,CLR,SCT,0.00,WeatherDisplay:10.37,2013-09-14 07:36:00,
2013-09-14 03:41:00,49.4,46.0,29.52,NNW,340,0.7,1.1,88,0.00,CLR,SCT,0.00,WeatherDisplay:10.37,2013-09-14 07:41:00,
2013-09-14 03:46:00,49.3,45.9,29.52,NNW,340,0.7,3.5,88,0.00,CLR,SCT,0.00,WeatherDisplay:10.37,2013-09-14 07:46:00,
2013-09-14 03:51:00,49.2,46.1,29.52,NNW,340,0.5,2.0,89,0.00,CLR,SCT,0.00,WeatherDisplay:10.37,2013-09-14 07:51:00,
2013-09-14 03:56:00,49.0,45.9,29.52,North,349,0.2,2.3,89,0.00,CLR,SCT,0.00,WeatherDisplay:10.37,2013-09-14 07:56:00,
2013-09-14 04:02:00,49.0,46.2,29.52,NW,326,1.4,3.5,90,0.00,CLR,SCT,0.00,WeatherDisplay:10.37,2013-09-14 08:02:00,
2013-09-14 04:06:00,49.0,46.2,29.52,NW,326,0.3,1.1,90,0.00,CLR,SCT,0.00,WeatherDisplay:10.37,2013-09-14 08:06:00,
2013-09-14 04:12:00,48.9,46.1,29.52,West,279,1.1,2.3,90,0.00,CLR,SCT,0.00,WeatherDisplay:10.37,2013-09-14 08:12:00,
2013-09-14 04:17:00,49.0,46.2,29.52,West,279,0.5,2.0,90,0.00,CLR,SCT,0.00,WeatherDisplay:10.37,2013-09-14 08:17:00,
2013-09-14 04:22:00,48.9,46.4,29.53,WSW,248,1.0,2.3,91,0.00,CLR,SCT,0.00,WeatherDisplay:10.37,2013-09-14 08:22:00,
2013-09-14 04:27:00,48.8,46.0,29.53,WSW,248,1.0,2.3,90,0.00,CLR,SCT,0.00,WeatherDisplay:10.37,2013-09-14 08:27:00,
2013-09-14 04:32:00,48.8,46.3,29.53,West,272,0.5,3.5,91,0.00,CLR,SCT,0.00,WeatherDisplay:10.37,2013-09-14 08:32:00,
2013-09-14 04:37:00,48.8,46.3,29.53,West,267,0.6,1.1,91,0.00,CLR,SCT,0.00,WeatherDisplay:10.37,2013-09-14 08:37:00,
2013-09-14 04:42:00,48.7,46.2,29.53,NNW,346,1.3,2.3,91,0.00,CLR,SCT,0.00,WeatherDisplay:10.37,2013-09-14 08:42:00,
2013-09-14 04:47:00,48.7,46.2,29.53,NNW,345,1.3,2.3,91,0.00,CLR,SCT,0.00,WeatherDisplay:10.37,2013-09-14 08:47:00,
2013-09-14 04:52:00,48.6,46.1,29.53,NNW,330,0.9,2.3,91,0.00,CLR,SCT,0.00,WeatherDisplay:10.37,2013-09-14 08:52:00,
2013-09-14 04:57:00,48.6,46.1,29.53,NNW,330,0.9,1.1,91,0.00,CLR,SCT,0.00,WeatherDisplay:10.37,2013-09-14 08:57:00,
2013-09-14 05:02:00,48.4,45.9,29.53,NNW,347,0.9,2.3,91,0.00,CLR,SCT,0.00,WeatherDisplay:10.37,2013-09-14 09:02:00,
2013-09-14 05:07:00,48.4,45.9,29.53,West,266,1.0,3.5,91,0.00,CLR,SCT,0.00,WeatherDisplay:10.37,2013-09-14 09:07:00,
2013-09-14 05:12:00,48.4,45.9,29.53,West,267,0.9,2.0,91,0.00,CLR,SCT,0.00,WeatherDisplay:10.37,2013-09-14 09:12:00,
2013-09-14 05:17:00,48.4,45.9,29.54,NW,311,0.2,3.5,91,0.00,CLR,SCT,0.00,WeatherDisplay:10.37,2013-09-14 09:17:00,
2013-09-14 05:22:00,48.4,45.9,29.54,North,355,0.6,2.3,91,0.00,CLR,SCT,0.00,WeatherDisplay:10.37,2013-09-14 09:22:00,
2013-09-14 05:27:00,48.4,46.2,29.54,North,355,0.6,2.3,92,0.00,CLR,SCT,0.00,WeatherDisplay:10.37,2013-09-14 09:27:00,
2013-09-14 05:32:00,48.4,45.9,29.54,NNW,339,0.7,2.3,91,0.00,CLR,SCT,0.00,WeatherDisplay:10.37,2013-09-14 09:32:00,
2013-09-14 05:37:00,48.3,45.8,29.54,NNE,32,0.9,1.1,91,0.00,CLR,SCT,0.00,WeatherDisplay:10.37,2013-09-14 09:37:00,
2013-09-14 05:42:00,48.4,46.2,29.55,NNW,345,0.9,1.1,92,0.00,CLR,SCT,0.00,WeatherDisplay:10.37,2013-09-14 09:42:00,
2013-09-14 05:47:00,48.5,46.0,29.55,NNW,345,0.5,1.1,91,0.00,CLR,SCT,0.00,WeatherDisplay:10.37,2013-09-14 09:47:00,
2013-09-14 05:52:00,48.5,46.3,29.55,NNW,335,0.6,2.3,92,0.00,CLR,SCT,0.00,WeatherDisplay:10.37,2013-09-14 09:52:00,
2013-09-14 05:57:00,48.5,46.3,29.55,NNW,328,1.4,2.3,92,0.00,CLR,SCT,0.00,WeatherDisplay:10.37,2013-09-14 09:57:00,
2013-09-14 06:02:00,48.6,46.1,29.55,NNW,338,0.8,2.3,91,0.00,CLR,SCT,0.00,WeatherDisplay:10.37,2013-09-14 10:02:00,
2013-09-14 06:07:00,48.7,46.2,29.55,NNW,335,0.4,2.3,91,0.00,CLR,SCT,0.00,WeatherDisplay:10.37,2013-09-14 10:07:00,
2013-09-14 06:12:00,48.9,46.7,29.56,NNW,335,0.8,2.3,92,0.00,CLR,SCT,0.00,WeatherDisplay:10.37,2013-09-14 10:12:00,
2013-09-14 06:17:00,49.0,46.8,29.56,North,5,2.0,4.0,92,0.00,CLR,SCT,0.00,WeatherDisplay:10.37,2013-09-14 10:17:00,
2013-09-14 06:22:00,49.1,46.9,29.56,NW,308,1.3,3.5,92,0.00,CLR,SCT,0.00,WeatherDisplay:10.37,2013-09-14 10:22:00,
2013-09-14 06:27:00,49.1,46.6,29.56,NW,310,0.7,2.3,91,0.00,CLR,SCT,0.00,WeatherDisplay:10.37,2013-09-14 10:27:00,
2013-09-14 06:32:00,49.2,46.7,29.56,NW,306,1.6,3.5,91,0.00,CLR,SCT,0.00,WeatherDisplay:10.37,2013-09-14 10:32:00,
2013-09-14 06:37:00,49.2,46.7,29.56,North,5,2.1,2.3,91,0.00,CLR,SCT,0.00,WeatherDisplay:10.37,2013-09-14 10:37:00,
2013-09-14 06:42:00,49.2,46.7,29.57,NNW,345,0.2,2.3,91,0.00,CLR,SCT,0.00,WeatherDisplay:10.37,2013-09-14 10:42:00,
2013-09-14 06:47:00,49.2,46.4,29.57,North,355,2.4,3.5,90,0.00,CLR,SCT,0.00,WeatherDisplay:10.37,2013-09-14 10:47:00,
2013-09-14 06:52:00,49.2,46.7,29.57,North,355,0.7,1.1,91,0.00,CLR,SCT,0.00,WeatherDisplay:10.37,2013-09-14 10:52:00,
2013-09-14 06:57:00,49.4,46.9,29.58,NNE,26,0.0,1.1,91,0.00,CLR,SCT,0.00,WeatherDisplay:10.37,2013-09-14 10:57:00,
2013-09-14 07:02:00,49.4,46.9,29.58,NNE,23,0.4,1.1,91,0.00,CLR,SCT,0.00,WeatherDisplay:10.37,2013-09-14 11:02:00,
2013-09-14 07:07:00,49.4,46.9,29.58,NNW,333,0.9,2.3,91,0.00,CLR,SCT,0.00,WeatherDisplay:10.37,2013-09-14 11:07:00,
2013-09-14 07:12:00,49.5,46.7,29.58,NNW,335,0.3,3.5,90,0.00,CLR,SCT,0.00,WeatherDisplay:10.37,2013-09-14 11:12:00,
2013-09-14 07:17:00,49.6,46.8,29.58,NE,36,2.0,4.6,90,0.00,CLR,SCT,0.00,WeatherDisplay:10.37,2013-09-14 11:17:00,
2013-09-14 07:22:00,49.6,46.8,29.59,North,355,0.9,3.5,90,0.00,CLR,SCT,0.00,WeatherDisplay:10.37,2013-09-14 11:22:00,
2013-09-14 07:27:00,49.7,46.9,29.59,NW,304,0.6,2.3,90,0.00,CLR,SCT,0.00,WeatherDisplay:10.37,2013-09-14 11:27:00,
2013-09-14 07:32:00,49.8,47.0,29.59,NNW,348,1.5,3.5,90,0.00,CLR,SCT,0.00,WeatherDisplay:10.37,2013-09-14 11:32:00,
2013-09-14 07:37:00,49.9,47.1,29.59,North,351,1.6,3.5,90,0.00,CLR,SCT,0.00,WeatherDisplay:10.37,2013-09-14 11:37:00,
2013-09-14 07:42:00,49.9,47.4,29.59,NE,38,2.0,3.5,91,0.00,CLR,SCT,0.00,WeatherDisplay:10.37,2013-09-14 11:42:00,
2013-09-14 07:47:00,50.0,47.2,29.59,NNE,30,2.2,4.0,90,0.00,CLR,SCT,0.00,WeatherDisplay:10.37,2013-09-14 11:47:00,
2013-09-14 07:52:00,50.1,47.3,29.59,NE,46,1.3,3.5,90,0.00,CLR,SCT,0.00,WeatherDisplay:10.37,2013-09-14 11:52:00,
2013-09-14 07:57:00,50.2,47.1,29.59,NNW,329,1.3,3.5,89,0.00,CLR,SCT,0.00,WeatherDisplay:10.37,2013-09-14 11:57:00,
2013-09-14 08:02:00,50.3,47.2,29.59,NW,323,1.9,4.0,89,0.00,CLR,SCT,0.00,WeatherDisplay:10.37,2013-09-14 12:02:00,
2013-09-14 08:07:00,50.4,47.3,29.59,NW,315,2.3,5.0,89,0.00,CLR,SCT,0.00,WeatherDisplay:10.37,2013-09-14 12:07:00,
2013-09-14 08:12:00,50.5,47.4,29.60,NW,325,2.0,5.8,89,0.00,CLR,SCT,0.00,WeatherDisplay:10.37,2013-09-14 12:12:00,
2013-09-14 08:17:00,50.5,47.1,29.60,ENE,63,1.5,2.3,88,0.00,CLR,SCT,0.00,WeatherDisplay:10.37,2013-09-14 12:17:00,
2013-09-14 08:22:00,50.6,46.9,29.60,NW,317,2.5,3.5,87,0.00,CLR,SCT,0.00,WeatherDisplay:10.37,2013-09-14 12:22:00,
2013-09-14 08:27:00,50.7,47.0,29.60,NNW,345,2.1,3.5,87,0.00,CLR,SCT,0.00,WeatherDisplay:10.37,2013-09-14 12:27:00,
2013-09-14 08:32:00,51.0,47.6,29.60,WNW,302,1.2,3.5,88,0.00,CLR,SCT,0.00,WeatherDisplay:10.37,2013-09-14 12:32:00,
2013-09-14 08:37:00,51.3,47.6,29.60,NE,51,1.9,2.3,87,0.00,CLR,SCT,0.00,WeatherDisplay:10.37,2013-09-14 12:37:00,
2013-09-14 08:42:00,51.5,47.5,29.60,NW,319,1.8,4.0,86,0.00,CLR,SCT,0.00,WeatherDisplay:10.37,2013-09-14 12:42:00,
2013-09-14 08:47:00,51.7,48.3,29.61,WNW,296,2.7,3.5,88,0.00,CLR,SCT,0.00,WeatherDisplay:10.37,2013-09-14 12:47:00,
2013-09-14 08:52:00,51.8,47.7,29.61,NNE,20,2.3,4.6,86,0.00,CLR,SCT,0.00,WeatherDisplay:10.37,2013-09-14 12:52:00,
2013-09-14 08:57:00,51.9,47.8,29.61,NNW,330,1.8,3.5,86,0.00,CLR,SCT,0.00,WeatherDisplay:10.37,2013-09-14 12:57:00,
2013-09-14 09:02:00,52.1,48.0,29.61,NW,317,1.6,3.0,86,0.00,CLR,SCT,0.00,WeatherDisplay:10.37,2013-09-14 13:02:00,
2013-09-14 09:07:00,52.2,48.1,29.61,WNW,294,2.5,3.5,86,0.00,CLR,SCT,0.00,WeatherDisplay:10.37,2013-09-14 13:07:00,
2013-09-14 09:12:00,52.3,48.2,29.61,NNW,340,1.6,3.5,86,0.00,CLR,SCT,0.00,WeatherDisplay:10.37,2013-09-14 13:12:00,
2013-09-14 09:17:00,52.4,47.7,29.61,NW,304,2.7,5.0,84,0.00,CLR,SCT,0.00,WeatherDisplay:10.37,2013-09-14 13:17:00,
2013-09-14 09:22:00,52.4,47.7,29.61,NW,316,4.0,6.9,84,0.00,CLR,SCT,0.00,WeatherDisplay:10.37,2013-09-14 13:22:00,
2013-09-14 09:27:00,52.4,48.3,29.61,NNE,13,2.6,5.0,86,0.00,CLR,SCT,0.00,WeatherDisplay:10.37,2013-09-14 13:27:00,
2013-09-14 09:32:00,52.4,47.7,29.61,North,355,2.2,4.6,84,0.00,CLR,SCT,0.00,WeatherDisplay:10.37,2013-09-14 13:32:00,
2013-09-14 09:37:00,52.6,48.2,29.61,NNW,346,1.9,3.5,85,0.00,CLR,SCT,0.00,WeatherDisplay:10.37,2013-09-14 13:37:00,
2013-09-14 09:42:00,53.0,48.9,29.61,NW,323,1.0,4.6,86,0.00,CLR,SCT,0.00,WeatherDisplay:10.37,2013-09-14 13:42:00,
2013-09-14 09:47:00,53.6,49.2,29.62,WNW,300,1.1,2.3,85,0.00,CLR,SCT,0.00,WeatherDisplay:10.37,2013-09-14 13:47:00,
2013-09-14 09:52:00,53.8,49.1,29.62,WSW,258,2.3,3.5,84,0.00,CLR,SCT,0.00,WeatherDisplay:10.37,2013-09-14 13:52:00,
2013-09-14 09:57:00,54.6,49.5,29.61,NW,311,1.3,3.5,83,0.00,CLR,SCT,0.00,WeatherDisplay:10.37,2013-09-14 13:57:00,
2013-09-14 10:02:00,54.6,49.5,29.62,NE,46,1.5,3.5,83,0.00,CLR,SCT,0.00,WeatherDisplay:10.37,2013-09-14 14:02:00,
2013-09-14 10:07:00,55.3,49.6,29.62,South,187,2.0,3.5,81,0.00,CLR,SCT,0.00,WeatherDisplay:10.37,2013-09-14 14:07:00,
2013-09-14 10:12:00,55.5,48.4,29.62,NNW,335,1.5,3.5,77,0.00,CLR,SCT,0.00,WeatherDisplay:10.37,2013-09-14 14:12:00,
2013-09-14 10:17:00,55.8,49.7,29.62,NNW,330,1.4,3.5,80,0.00,CLR,SCT,0.00,WeatherDisplay:10.37,2013-09-14 14:17:00,
2013-09-14 10:22:00,56.0,49.2,29.62,NNW,348,3.3,4.6,78,0.00,CLR,SCT,0.00,WeatherDisplay:10.37,2013-09-14 14:22:00,
2013-09-14 10:27:00,56.2,49.1,29.62,North,5,1.0,4.6,77,0.00,CLR,SCT,0.00,WeatherDisplay:10.37,2013-09-14 14:27:00,
2013-09-14 10:32:00,56.4,50.3,29.62,SE,142,2.2,3.5,80,0.00,CLR,SCT,0.00,WeatherDisplay:10.37,2013-09-14 14:32:00,
2013-09-14 10:37:00,56.9,50.5,29.62,NW,309,2.3,3.5,79,0.00,CLR,SCT,0.00,WeatherDisplay:10.37,2013-09-14 14:37:00,
2013-09-14 10:42:00,56.9,48.7,29.62,West,281,3.6,4.6,74,0.00,CLR,SCT,0.00,WeatherDisplay:10.37,2013-09-14 14:42:00,
2013-09-14 10:47:00,56.9,48.3,29.62,NNW,333,4.4,11.5,73,0.00,CLR,SCT,0.00,WeatherDisplay:10.37,2013-09-14 14:47:00,
2013-09-14 10:52:00,57.1,49.2,29.62,NNE,12,2.2,3.5,75,0.00,CLR,SCT,0.00,WeatherDisplay:10.37,2013-09-14 14:52:00,
2013-09-14 10:57:00,57.5,48.5,29.63,NNW,344,1.6,6.9,72,0.00,CLR,SCT,0.00,WeatherDisplay:10.37,2013-09-14 14:57:00,
2013-09-14 11:02:00,57.7,49.8,29.63,SSE,160,2.4,4.6,75,0.00,CLR,SCT,0.00,WeatherDisplay:10.37,2013-09-14 15:02:00,
2013-09-14 11:07:00,57.4,49.2,29.63,WNW,292,2.7,3.5,74,0.00,CLR,SCT,0.00,WeatherDisplay:10.37,2013-09-14 15:07:00,
2013-09-14 11:12:00,57.3,49.1,29.63,NW,321,3.9,10.4,74,0.00,CLR,SCT,0.00,WeatherDisplay:10.37,2013-09-14 15:12:00,
2013-09-14 11:17:00,58.2,50.3,29.63,NW,312,2.2,4.6,75,0.00,CLR,SCT,0.00,WeatherDisplay:10.37,2013-09-14 15:17:00,
2013-09-14 11:22:00,57.9,49.7,29.62,WNW,302,1.3,3.5,74,0.00,CLR,SCT,0.00,WeatherDisplay:10.37,2013-09-14 15:22:00,
2013-09-14 11:27:00,57.7,49.5,29.63,North,355,4.1,4.6,74,0.00,CLR,SCT,0.00,WeatherDisplay:10.37,2013-09-14 15:27:00,
2013-09-14 11:32:00,58.3,50.4,29.62,NNW,336,0.8,3.5,75,0.00,CLR,SCT,0.00,WeatherDisplay:10.37,2013-09-14 15:32:00,
2013-09-14 11:37:00,58.7,49.7,29.63,West,274,2.9,4.0,72,0.00,CLR,SCT,0.00,WeatherDisplay:10.37,2013-09-14 15:37:00,
2013-09-14 11:42:00,58.8,49.4,29.63,NW,325,3.3,4.6,71,0.00,CLR,SCT,0.00,WeatherDisplay:10.37,2013-09-14 15:42:00,
2013-09-14 11:47:00,58.7,50.4,29.63,WNW,290,1.4,2.3,74,0.00,CLR,SCT,0.00,WeatherDisplay:10.37,2013-09-14 15:47:00,
2013-09-14 11:52:00,58.9,49.9,29.63,NW,319,1.6,4.6,72,0.00,CLR,SCT,0.00,WeatherDisplay:10.37,2013-09-14 15:52:00,
2013-09-14 11:57:00,59.0,50.7,29.63,NNW,342,0.8,3.5,74,0.00,CLR,SCT,0.00,WeatherDisplay:10.37,2013-09-14 15:57:00,
2013-09-14 12:02:00,59.4,51.1,29.64,NNE,27,1.8,4.6,74,0.00,CLR,SCT,0.00,WeatherDisplay:10.37,2013-09-14 16:02:00,
2013-09-14 12:07:00,59.9,50.5,29.64,SW,215,1.7,3.5,71,0.00,CLR,SCT,0.00,WeatherDisplay:10.37,2013-09-14 16:07:00,
2013-09-14 12:12:00,59.9,50.1,29.64,NW,317,1.8,4.6,70,0.00,CLR,SCT,0.00,WeatherDisplay:10.37,2013-09-14 16:12:00,
2013-09-14 12:17:00,59.7,49.5,29.64,NNW,327,2.0,4.6,69,0.00,CLR,SCT,0.00,WeatherDisplay:10.37,2013-09-14 16:17:00,
2013-09-14 12:22:00,59.7,50.7,29.64,NW,325,0.7,1.1,72,0.00,CLR,SCT,0.00,WeatherDisplay:10.37,2013-09-14 16:22:00,
2013-09-14 12:27:00,59.4,50.4,29.63,NE,43,1.3,5.0,72,0.00,CLR,SCT,0.00,WeatherDisplay:10.37,2013-09-14 16:27:00,
2013-09-14 12:32:00,59.2,50.2,29.64,WNW,294,1.4,4.6,72,0.00,CLR,SCT,0.00,WeatherDisplay:10.37,2013-09-14 16:32:00,
2013-09-14 12:37:00,59.1,49.3,29.64,North,9,1.8,4.6,70,0.00,CLR,SCT,0.00,WeatherDisplay:10.37,2013-09-14 16:37:00,
2013-09-14 12:42:00,59.9,50.1,29.64,NW,308,2.8,5.8,70,0.00,CLR,SCT,0.00,WeatherDisplay:10.37,2013-09-14 16:42:00,
2013-09-14 12:47:00,60.2,50.4,29.63,NNW,330,1.9,3.5,70,0.00,CLR,SCT,0.00,WeatherDisplay:10.37,2013-09-14 16:47:00,
2013-09-14 12:52:00,60.3,50.5,29.63,North,360,1.5,3.5,70,0.00,CLR,SCT,0.00,WeatherDisplay:10.37,2013-09-14 16:52:00,
2013-09-14 12:57:00,60.5,50.7,29.64,NNW,331,1.1,1.1,70,0.00,CLR,SCT,0.00,WeatherDisplay:10.37,2013-09-14 16:57:00,
2013-09-14 13:02:00,60.9,50.7,29.63,NW,316,1.9,3.5,69,0.00,CLR,SCT,0.00,WeatherDisplay:10.37,2013-09-14 17:02:00,
2013-09-14 13:07:00,61.0,51.1,29.63,WNW,282,2.6,8.1,70,0.00,CLR,SCT,0.00,WeatherDisplay:10.37,2013-09-14 17:07:00,
2013-09-14 13:12:00,61.2,52.1,29.63,NW,307,0.9,2.3,72,0.00,CLR,SCT,0.00,WeatherDisplay:10.37,2013-09-14 17:12:00,
2013-09-14 13:17:00,61.6,50.9,29.63,NW,325,3.3,4.0,68,0.00,CLR,SCT,0.00,WeatherDisplay:10.37,2013-09-14 17:17:00,
2013-09-14 13:22:00,61.6,50.9,29.64,SW,219,1.1,3.5,68,0.00,CLR,SCT,0.00,WeatherDisplay:10.37,2013-09-14 17:22:00,
2013-09-14 13:27:00,61.2,50.2,29.63,NNW,345,1.8,4.6,67,0.00,CLR,SCT,0.00,WeatherDisplay:10.37,2013-09-14 17:27:00,
2013-09-14 13:32:00,61.0,52.3,29.63,NW,312,0.3,3.0,73,0.00,CLR,SCT,0.00,WeatherDisplay:10.37,2013-09-14 17:32:00,
2013-09-14 13:37:00,61.5,51.6,29.64,NNW,329,2.0,4.6,70,0.00,CLR,SCT,0.00,WeatherDisplay:10.37,2013-09-14 17:37:00,
2013-09-14 13:42:00,61.1,50.1,29.63,NNW,336,1.2,4.0,67,0.00,CLR,SCT,0.00,WeatherDisplay:10.37,2013-09-14 17:42:00,
2013-09-14 13:47:00,60.9,51.0,29.63,North,10,1.0,3.5,70,0.00,CLR,SCT,0.00,WeatherDisplay:10.37,2013-09-14 17:47:00,
2013-09-14 13:52:00,61.4,51.1,29.63,NW,319,1.6,2.3,69,0.00,CLR,SCT,0.00,WeatherDisplay:10.37,2013-09-14 17:52:00,
2013-09-14 13:57:00,62.3,50.4,29.63,NNE,31,0.9,2.3,65,0.00,CLR,SCT,0.00,WeatherDisplay:10.37,2013-09-14 17:57:00,
2013-09-14 14:02:00,62.5,51.0,29.63,NNE,24,1.1,2.0,66,0.00,CLR,SCT,0.00,WeatherDisplay:10.37,2013-09-14 18:02:00,
2013-09-14 14:07:00,61.9,50.0,29.63,NNW,327,1.0,3.5,65,0.00,CLR,SCT,0.00,WeatherDisplay:10.37,2013-09-14 18:07:00,
2013-09-14 14:12:00,61.0,50.8,29.63,NNW,335,1.3,1.3,69,0.00,CLR,SCT,0.00,WeatherDisplay:10.37,2013-09-14 18:12:00,
2013-09-14 14:17:00,60.4,51.0,29.63,NNW,335,0.0,0.0,71,0.00,CLR,SCT,0.00,WeatherDisplay:10.37,2013-09-14 18:17:00,
2013-09-14 14:22:00,60.0,52.4,29.63,ENE,66,1.9,4.0,76,0.00,CLR,SCT,0.00,WeatherDisplay:10.37,2013-09-14 18:22:00,
2013-09-14 14:27:00,61.2,50.9,29.63,NNE,22,1.9,4.6,69,0.00,CLR,SCT,0.00,WeatherDisplay:10.37,2013-09-14 18:27:00,
2013-09-14 14:32:00,61.7,51.0,29.63,WNW,283,2.8,4.0,68,0.00,CLR,SCT,0.00,WeatherDisplay:10.37,2013-09-14 18:32:00,
2013-09-14 14:37:00,61.6,50.5,29.64,North,5,1.3,3.5,67,0.00,CLR,SCT,0.00,WeatherDisplay:10.37,2013-09-14 18:37:00,
2013-09-14 14:42:00,61.4,50.7,29.64,NNW,348,0.6,3.5,68,0.00,CLR,SCT,0.00,WeatherDisplay:10.37,2013-09-14 18:42:00,
2013-09-14 14:47:00,61.3,51.0,29.64,NNE,12,0.9,2.3,69,0.00,CLR,SCT,0.00,WeatherDisplay:10.37,2013-09-14 18:47:00,
2013-09-14 14:52:00,61.7,51.0,29.64,NW,308,0.8,2.3,68,0.00,CLR,SCT,0.00,WeatherDisplay:10.37,2013-09-14 18:52:00,
2013-09-14 14:57:00,61.8,52.3,29.64,North,355,2.6,4.0,71,0.00,CLR,SCT,0.00,WeatherDisplay:10.37,2013-09-14 18:57:00,
2013-09-14 15:02:00,61.6,50.5,29.64,North,5,0.7,6.9,67,0.00,CLR,SCT,0.00,WeatherDisplay:10.37,2013-09-14 19:02:00,
2013-09-14 15:07:00,61.2,52.5,29.64,North,5,0.3,1.1,73,0.00,CLR,SCT,0.00,WeatherDisplay:10.37,2013-09-14 19:07:00,
2013-09-14 15:12:00,60.9,51.8,29.64,ENE,72,1.1,2.3,72,0.00,CLR,SCT,0.00,WeatherDisplay:10.37,2013-09-14 19:12:00,
2013-09-14 15:17:00,60.8,52.5,29.64,North,350,0.4,2.3,74,0.00,CLR,SCT,0.00,WeatherDisplay:10.37,2013-09-14 19:17:00,
2013-09-14 15:22:00,60.8,50.2,29.64,NW,315,1.2,2.3,68,0.00,CLR,SCT,0.00,WeatherDisplay:10.37,2013-09-14 19:22:00,
2013-09-14 15:27:00,60.7,51.2,29.65,ESE,116,1.3,5.8,71,0.00,CLR,SCT,0.00,WeatherDisplay:10.37,2013-09-14 19:27:00,
2013-09-14 15:32:00,60.6,51.1,29.65,NE,49,0.9,2.3,71,0.00,CLR,SCT,0.00,WeatherDisplay:10.37,2013-09-14 19:32:00,
2013-09-14 15:37:00,60.5,51.0,29.65,WNW,286,0.9,3.5,71,0.00,CLR,SCT,0.00,WeatherDisplay:10.37,2013-09-14 19:37:00,
2013-09-14 15:42:00,60.2,51.1,29.65,North,355,0.0,2.3,72,0.00,CLR,SCT,0.00,WeatherDisplay:10.37,2013-09-14 19:42:00,
2013-09-14 15:47:00,60.0,52.1,29.65,NW,313,0.3,1.1,75,0.00,CLR,SCT,0.00,WeatherDisplay:10.37,2013-09-14 19:47:00,
2013-09-14 15:52:00,59.7,51.4,29.65,SSE,150,0.9,1.1,74,0.00,CLR,SCT,0.00,WeatherDisplay:10.37,2013-09-14 19:52:00,
2013-09-14 15:57:00,59.5,50.8,29.65,NE,41,0.7,2.0,73,0.00,CLR,SCT,0.00,WeatherDisplay:10.37,2013-09-14 19:57:00,
2013-09-14 16:02:00,59.5,50.8,29.65,NNE,14,2.6,3.0,73,0.00,CLR,SCT,0.00,WeatherDisplay:10.37,2013-09-14 20:02:00,
2013-09-14 16:07:00,59.7,50.7,29.65,North,351,0.0,0.0,72,0.00,CLR,SCT,0.00,WeatherDisplay:10.37,2013-09-14 20:07:00,
2013-09-14 16:12:00,60.1,51.0,29.65,NE,36,1.0,1.1,72,0.00,CLR,SCT,0.00,WeatherDisplay:10.37,2013-09-14 20:12:00,
2013-09-14 16:17:00,60.3,52.0,29.65,NNE,26,0.4,1.1,74,0.00,CLR,SCT,0.00,WeatherDisplay:10.37,2013-09-14 20:17:00,
2013-09-14 16:22:00,60.2,51.9,29.65,NNW,342,0.3,2.3,74,0.00,CLR,SCT,0.00,WeatherDisplay:10.37,2013-09-14 20:22:00,
2013-09-14 16:27:00,60.0,51.7,29.66,NNW,341,0.1,1.1,74,0.00,CLR,SCT,0.00,WeatherDisplay:10.37,2013-09-14 20:27:00,
2013-09-14 16:32:00,59.6,52.0,29.66,NNW,341,0.0,1.1,76,0.00,CLR,SCT,0.00,WeatherDisplay:10.37,2013-09-14 20:32:00,
2013-09-14 16:37:00,59.3,51.4,29.66,NE,53,0.1,0.0,75,0.00,CLR,SCT,0.00,WeatherDisplay:10.37,2013-09-14 20:37:00,
2013-09-14 16:42:00,59.1,51.9,29.66,NE,53,0.0,0.0,77,0.00,CLR,SCT,0.00,WeatherDisplay:10.37,2013-09-14 20:42:00,
2013-09-14 16:47:00,58.9,52.1,29.67,NE,53,0.0,0.0,78,0.00,CLR,SCT,0.00,WeatherDisplay:10.37,2013-09-14 20:47:00,
2013-09-14 16:52:00,58.9,52.1,29.67,NE,53,0.0,0.0,78,0.00,CLR,SCT,0.00,WeatherDisplay:10.37,2013-09-14 20:52:00,
2013-09-14 16:57:00,59.0,52.5,29.67,NE,53,0.0,1.1,79,0.00,CLR,SCT,0.00,WeatherDisplay:10.37,2013-09-14 20:57:00,
2013-09-14 17:02:00,59.0,52.5,29.67,NE,53,0.0,1.1,79,0.00,CLR,SCT,0.00,WeatherDisplay:10.37,2013-09-14 21:02:00,
2013-09-14 17:07:00,59.1,52.9,29.67,NE,53,0.1,1.1,80,0.00,CLR,SCT,0.00,WeatherDisplay:10.37,2013-09-14 21:07:00,
2013-09-14 17:12:00,59.0,52.1,29.67,NE,53,0.0,0.0,78,0.00,CLR,SCT,0.00,WeatherDisplay:10.37,2013-09-14 21:12:00,
2013-09-14 17:17:00,59.0,52.1,29.67,NE,40,0.8,1.1,78,0.00,CLR,SCT,0.00,WeatherDisplay:10.37,2013-09-14 21:17:00,
2013-09-14 17:22:00,58.9,52.1,29.67,ENE,71,0.2,1.0,78,0.00,CLR,SCT,0.00,WeatherDisplay:10.37,2013-09-14 21:22:00,
2013-09-14 17:27:00,58.8,52.0,29.67,ENE,71,0.1,0.0,78,0.00,CLR,SCT,0.00,WeatherDisplay:10.37,2013-09-14 21:27:00,
2013-09-14 17:32:00,58.6,51.4,29.67,NE,42,0.4,1.1,77,0.00,CLR,SCT,0.00,WeatherDisplay:10.37,2013-09-14 21:32:00,
2013-09-14 17:37:00,58.5,51.0,29.68,NE,36,0.9,1.1,76,0.00,CLR,SCT,0.00,WeatherDisplay:10.37,2013-09-14 21:37:00,
2013-09-14 17:42:00,58.7,51.2,29.68,NNE,32,0.0,0.0,76,0.00,CLR,SCT,0.00,WeatherDisplay:10.37,2013-09-14 21:42:00,
2013-09-14 17:47:00,58.7,51.2,29.68,NE,34,0.3,1.1,76,0.00,CLR,SCT,0.00,WeatherDisplay:10.37,2013-09-14 21:47:00,
2013-09-14 17:52:00,58.8,51.2,29.68,North,9,0.6,2.3,76,0.00,CLR,SCT,0.00,WeatherDisplay:10.37,2013-09-14 21:52:00,
2013-09-14 17:57:00,58.7,50.4,29.68,North,9,0.7,2.3,74,0.00,CLR,SCT,0.00,WeatherDisplay:10.37,2013-09-14 21:57:00,
2013-09-14 18:02:00,58.5,51.0,29.68,North,9,0.2,1.1,76,0.00,CLR,SCT,0.00,WeatherDisplay:10.37,2013-09-14 22:02:00,
2013-09-14 18:07:00,58.2,51.4,29.68,North,360,0.0,1.1,78,0.00,CLR,SCT,0.00,WeatherDisplay:10.37,2013-09-14 22:07:00,
2013-09-14 18:12:00,57.9,51.4,29.68,North,360,0.0,0.0,79,0.00,CLR,SCT,0.00,WeatherDisplay:10.37,2013-09-14 22:12:00,
2013-09-14 18:17:00,57.5,51.0,29.68,North,360,0.0,1.1,79,0.00,CLR,SCT,0.00,WeatherDisplay:10.37,2013-09-14 22:17:00,
2013-09-14 18:22:00,57.2,51.1,29.69,North,360,0.0,0.0,80,0.00,CLR,SCT,0.00,WeatherDisplay:10.37,2013-09-14 22:22:00,
2013-09-14 18:27:00,56.8,51.0,29.69,North,360,0.0,0.0,81,0.00,CLR,SCT,0.00,WeatherDisplay:10.37,2013-09-14 22:27:00,
2013-09-14 18:32:00,56.5,51.1,29.69,North,360,0.0,0.0,82,0.00,CLR,SCT,0.00,WeatherDisplay:10.37,2013-09-14 22:32:00,
2013-09-14 18:37:00,56.2,50.8,29.69,North,360,0.0,0.0,82,0.00,CLR,SCT,0.00,WeatherDisplay:10.37,2013-09-14 22:37:00,
2013-09-14 18:42:00,55.9,50.8,29.69,North,360,0.1,1.1,83,0.00,CLR,SCT,0.00,WeatherDisplay:10.37,2013-09-14 22:42:00,
2013-09-14 18:47:00,55.6,50.8,29.69,ENE,75,0.1,1.1,84,0.00,CLR,SCT,0.00,WeatherDisplay:10.37,2013-09-14 22:47:00,
2013-09-14 18:51:00,55.4,50.6,29.69,North,5,0.3,0.0,84,0.00,CLR,SCT,0.00,WeatherDisplay:10.37,2013-09-14 22:51:00,
2013-09-14 18:56:00,55.2,50.4,29.70,North,5,0.2,1.1,84,0.00,CLR,SCT,0.00,WeatherDisplay:10.37,2013-09-14 22:56:00,
2013-09-14 19:01:00,55.0,50.3,29.70,North,5,0.0,0.0,84,0.00,CLR,SCT,0.00,WeatherDisplay:10.37,2013-09-14 23:01:00,
2013-09-14 19:06:00,54.9,50.5,29.70,North,5,0.0,1.1,85,0.00,CLR,SCT,0.00,WeatherDisplay:10.37,2013-09-14 23:06:00,
2013-09-14 19:11:00,54.7,50.3,29.70,North,5,0.3,0.0,85,0.00,CLR,SCT,0.00,WeatherDisplay:10.37,2013-09-14 23:11:00,
2013-09-14 19:16:00,54.4,50.0,29.70,NNE,22,0.0,0.0,85,0.00,CLR,SCT,0.00,WeatherDisplay:10.37,2013-09-14 23:16:00,
2013-09-14 19:21:00,54.2,49.8,29.71,NNE,22,0.0,0.0,85,0.00,CLR,SCT,0.00,WeatherDisplay:10.37,2013-09-14 23:21:00,
2013-09-14 19:26:00,54.0,49.9,29.71,NNE,22,0.0,0.0,86,0.00,CLR,SCT,0.00,WeatherDisplay:10.37,2013-09-14 23:26:00,
2013-09-14 19:31:00,53.8,50.0,29.71,NNE,22,0.0,0.0,87,0.00,CLR,SCT,0.00,WeatherDisplay:10.37,2013-09-14 23:31:00,
2013-09-14 19:36:00,53.3,49.8,29.71,NNE,22,0.0,1.1,88,0.00,CLR,SCT,0.00,WeatherDisplay:10.37,2013-09-14 23:36:00,
2013-09-14 19:41:00,52.8,49.6,29.71,NNE,22,0.0,0.0,89,0.00,CLR,SCT,0.00,WeatherDisplay:10.37,2013-09-14 23:41:00,
2013-09-14 19:46:00,52.4,49.6,29.72,NNE,22,0.0,0.0,90,0.00,CLR,SCT,0.00,WeatherDisplay:10.37,2013-09-14 23:46:00,
2013-09-14 19:51:00,52.0,49.2,29.72,NNE,22,0.0,0.0,90,0.00,CLR,SCT,0.00,WeatherDisplay:10.37,2013-09-14 23:51:00,
2013-09-14 19:56:00,51.7,48.9,29.72,NNE,22,0.0,0.0,90,0.00,CLR,SCT,0.00,WeatherDisplay:10.37,2013-09-14 23:56:00,
2013-09-14 20:01:00,51.5,48.7,29.72,NNE,22,0.0,0.0,90,0.00,CLR,SCT,0.00,WeatherDisplay:10.37,2013-09-15 00:01:00,
2013-09-14 20:06:00,51.4,48.9,29.72,NNE,22,0.0,0.0,91,0.00,CLR,SCT,0.00,WeatherDisplay:10.37,2013-09-15 00:06:00,
2013-09-14 20:11:00,51.3,48.8,29.73,NNE,22,0.0,0.0,91,0.00,CLR,SCT,0.00,WeatherDisplay:10.37,2013-09-15 00:11:00,
2013-09-14 20:16:00,51.3,49.1,29.73,NNE,22,0.0,0.0,92,0.00,CLR,SCT,0.00,WeatherDisplay:10.37,2013-09-15 00:16:00,
2013-09-14 20:21:00,51.2,49.0,29.73,NNE,22,0.0,0.0,92,0.00,CLR,SCT,0.00,WeatherDisplay:10.37,2013-09-15 00:21:00,
2013-09-14 20:26:00,51.1,48.9,29.73,NNE,22,0.0,0.0,92,0.00,CLR,SCT,0.00,WeatherDisplay:10.37,2013-09-15 00:26:00,
2013-09-14 20:31:00,51.0,48.8,29.73,NNE,22,0.0,0.0,92,0.00,CLR,SCT,0.00,WeatherDisplay:10.37,2013-09-15 00:31:00,
2013-09-14 20:36:00,50.8,48.6,29.74,NNE,22,0.0,0.0,92,0.00,CLR,SCT,0.00,WeatherDisplay:10.37,2013-09-15 00:36:00,
2013-09-14 20:41:00,50.5,48.3,29.74,NNE,22,0.0,0.0,92,0.00,CLR,SCT,0.00,WeatherDisplay:10.37,2013-09-15 00:41:00,
2013-09-14 20:46:00,50.3,48.1,29.74,NNE,22,0.0,0.0,92,0.00,CLR,SCT,0.00,WeatherDisplay:10.37,2013-09-15 00:46:00,
2013-09-14 20:51:00,50.1,48.2,29.74,NNE,22,0.0,1.1,93,0.00,CLR,SCT,0.00,WeatherDisplay:10.37,2013-09-15 00:51:00,
2013-09-14 20:56:00,49.8,47.9,29.74,NNE,22,0.0,0.0,93,0.00,CLR,SCT,0.00,WeatherDisplay:10.37,2013-09-15 00:56:00,
2013-09-14 21:01:00,49.6,47.7,29.74,NNE,22,0.0,0.0,93,0.00,CLR,SCT,0.00,WeatherDisplay:10.37,2013-09-15 01:01:00,
2013-09-14 21:06:00,49.5,47.8,29.75,NNE,22,0.0,0.0,94,0.00,CLR,SCT,0.00,WeatherDisplay:10.37,2013-09-15 01:06:00,
2013-09-14 21:11:00,49.4,47.7,29.75,NNE,22,0.0,0.0,94,0.00,CLR,SCT,0.00,WeatherDisplay:10.37,2013-09-15 01:11:00,
2013-09-14 21:16:00,49.3,47.6,29.75,NNE,22,0.0,0.0,94,0.00,CLR,SCT,0.00,WeatherDisplay:10.37,2013-09-15 01:16:00,
2013-09-14 21:21:00,49.2,47.5,29.75,NNE,22,0.0,0.0,94,0.00,CLR,SCT,0.00,WeatherDisplay:10.37,2013-09-15 01:21:00,
2013-09-14 21:26:00,49.0,47.3,29.75,NNE,22,0.0,1.1,94,0.00,CLR,SCT,0.00,WeatherDisplay:10.37,2013-09-15 01:26:00,
2013-09-14 21:31:00,48.9,47.2,29.75,NNE,22,0.0,1.1,94,0.00,CLR,SCT,0.00,WeatherDisplay:10.37,2013-09-15 01:31:00,
2013-09-14 21:36:00,48.8,47.2,29.75,NNE,22,0.0,0.0,94,0.00,CLR,SCT,0.00,WeatherDisplay:10.37,2013-09-15 01:36:00,
2013-09-14 21:41:00,48.7,47.1,29.75,NNE,22,0.0,0.0,94,0.00,CLR,SCT,0.00,WeatherDisplay:10.37,2013-09-15 01:41:00,
2013-09-14 21:46:00,48.6,47.2,29.75,NNE,22,0.0,1.1,95,0.00,CLR,SCT,0.00,WeatherDisplay:10.37,2013-09-15 01:46:00,
2013-09-14 21:51:00,48.5,46.9,29.75,NNE,22,0.0,0.0,94,0.00,CLR,SCT,0.00,WeatherDisplay:10.37,2013-09-15 01:51:00,
2013-09-14 21:56:00,48.4,46.8,29.75,NNE,22,0.0,0.0,94,0.00,CLR,SCT,0.00,WeatherDisplay:10.37,2013-09-15 01:56:00,
2013-09-14 22:01:00,48.3,46.9,29.75,NNE,22,0.0,0.0,95,0.00,CLR,SCT,0.00,WeatherDisplay:10.37,2013-09-15 02:01:00,
2013-09-14 22:06:00,48.2,46.8,29.75,NNE,22,0.1,0.0,95,0.00,CLR,SCT,0.00,WeatherDisplay:10.37,2013-09-15 02:06:00,
2013-09-14 22:11:00,48.2,46.8,29.76,NNE,22,0.0,0.0,95,0.00,CLR,SCT,0.00,WeatherDisplay:10.37,2013-09-15 02:11:00,
2013-09-14 22:16:00,48.1,46.7,29.76,NNE,22,0.0,0.0,95,0.00,CLR,SCT,0.00,WeatherDisplay:10.37,2013-09-15 02:16:00,
2013-09-14 22:21:00,48.0,46.6,29.76,NNE,22,0.0,1.1,95,0.00,CLR,SCT,0.00,WeatherDisplay:10.37,2013-09-15 02:21:00,
2013-09-14 22:26:00,47.8,46.4,29.76,NNE,22,0.0,0.0,95,0.00,CLR,SCT,0.00,WeatherDisplay:10.37,2013-09-15 02:26:00,
2013-09-14 22:31:00,47.8,46.4,29.76,NNE,22,0.0,0.0,95,0.00,CLR,SCT,0.00,WeatherDisplay:10.37,2013-09-15 02:31:00,
2013-09-14 22:36:00,47.6,46.2,29.76,NNE,22,0.0,0.0,95,0.00,CLR,SCT,0.00,WeatherDisplay:10.37,2013-09-15 02:36:00,
2013-09-14 22:41:00,47.6,46.2,29.76,NNE,22,0.0,0.0,95,0.00,CLR,SCT,0.00,WeatherDisplay:10.37,2013-09-15 02:41:00,
2013-09-14 22:46:00,47.5,46.1,29.76,NNE,22,0.0,0.0,95,0.00,CLR,SCT,0.00,WeatherDisplay:10.37,2013-09-15 02:46:00,
2013-09-14 22:51:00,47.4,46.0,29.76,NNE,22,0.0,0.0,95,0.00,CLR,SCT,0.00,WeatherDisplay:10.37,2013-09-15 02:51:00,
2013-09-14 22:56:00,47.3,45.9,29.76,NNE,22,0.0,0.0,95,0.00,CLR,SCT,0.00,WeatherDisplay:10.37,2013-09-15 02:56:00,
2013-09-14 23:01:00,47.3,45.9,29.76,NNE,22,0.0,0.0,95,0.00,CLR,SCT,0.00,WeatherDisplay:10.37,2013-09-15 03:01:00,
2013-09-14 23:06:00,47.3,45.9,29.76,NNE,22,0.0,0.0,95,0.00,CLR,SCT,0.00,WeatherDisplay:10.37,2013-09-15 03:06:00,
2013-09-14 23:11:00,47.3,45.9,29.76,NNE,22,0.0,0.0,95,0.00,CLR,SCT,0.00,WeatherDisplay:10.37,2013-09-15 03:11:00,
2013-09-14 23:16:00,47.2,45.8,29.76,NNE,22,0.0,0.0,95,0.00,CLR,SCT,0.00,WeatherDisplay:10.37,2013-09-15 03:16:00,
2013-09-14 23:21:00,47.1,45.7,29.76,NNE,22,0.0,0.0,95,0.00,CLR,SCT,0.00,WeatherDisplay:10.37,2013-09-15 03:21:00,
2013-09-14 23:26:00,47.0,45.6,29.76,NNE,22,0.1,0.0,95,0.00,CLR,SCT,0.00,WeatherDisplay:10.37,2013-09-15 03:26:00,
2013-09-14 23:31:00,47.0,45.6,29.77,NNE,22,0.0,0.0,95,0.00,CLR,SCT,0.00,WeatherDisplay:10.37,2013-09-15 03:31:00,
2013-09-14 23:36:00,47.0,45.6,29.77,NNE,22,0.0,0.0,95,0.00,CLR,SCT,0.00,WeatherDisplay:10.37,2013-09-15 03:36:00,
2013-09-14 23:41:00,46.9,45.5,29.77,NNE,22,0.0,0.0,95,0.00,CLR,SCT,0.00,WeatherDisplay:10.37,2013-09-15 03:41:00,
2013-09-14 23:46:00,47.0,45.6,29.77,NNE,22,0.0,0.0,95,0.00,CLR,SCT,0.00,WeatherDisplay:10.37,2013-09-15 03:46:00,
2013-09-14 23:51:00,46.9,45.5,29.77,NNE,22,0.0,0.0,95,0.00,CLR,SCT,0.00,WeatherDisplay:10.37,2013-09-15 03:51:00,
2013-09-14 23:56:00,46.7,45.3,29.78,NNE,22,0.0,0.0,95,0.00,CLR,SCT,0.00,WeatherDisplay:10.37,2013-09-15 03:56:00,